sensor_id;sensor_type;location;lat;lon;timestamp;temperature;humidity
55771;DHT22;41687;-33.234;-60.334;2023-06-24T00:00:13;10.10;99.90
55771;DHT22;41687;-33.234;-60.334;2023-06-24T00:02:45;10.10;99.90
55771;DHT22;41687;-33.234;-60.334;2023-06-24T00:05:14;10.10;99.90
55771;DHT22;41687;-33.234;-60.334;2023-06-24T00:07:46;10.00;99.90
55771;DHT22;41687;-33.234;-60.334;2023-06-24T00:10:20;10.10;99.90
55771;DHT22;41687;-33.234;-60.334;2023-06-24T00:12:49;10.10;99.90
55771;DHT22;41687;-33.234;-60.334;2023-06-24T00:15:17;10.00;99.90
55771;DHT22;41687;-33.234;-60.334;2023-06-24T00:17:46;10.10;99.90
55771;DHT22;41687;-33.234;-60.334;2023-06-24T00:20:17;10.10;99.90
55771;DHT22;41687;-33.234;-60.334;2023-06-24T00:22:49;10.10;99.90
55771;DHT22;41687;-33.234;-60.334;2023-06-24T00:25:21;10.20;99.90
55771;DHT22;41687;-33.234;-60.334;2023-06-24T00:27:50;10.20;99.90
55771;DHT22;41687;-33.234;-60.334;2023-06-24T00:30:23;10.20;99.90
55771;DHT22;41687;-33.234;-60.334;2023-06-24T00:32:51;10.20;99.90
55771;DHT22;41687;-33.234;-60.334;2023-06-24T00:35:20;10.20;99.90
55771;DHT22;41687;-33.234;-60.334;2023-06-24T00:38:00;10.30;99.90
55771;DHT22;41687;-33.234;-60.334;2023-06-24T00:40:30;10.30;99.90
55771;DHT22;41687;-33.234;-60.334;2023-06-24T00:42:59;10.30;99.90
55771;DHT22;41687;-33.234;-60.334;2023-06-24T00:45:29;10.30;99.90
55771;DHT22;41687;-33.234;-60.334;2023-06-24T00:48:01;10.30;99.90
55771;DHT22;41687;-33.234;-60.334;2023-06-24T00:50:39;10.30;99.90
55771;DHT22;41687;-33.234;-60.334;2023-06-24T00:53:19;10.30;99.90
55771;DHT22;41687;-33.234;-60.334;2023-06-24T00:55:53;10.30;99.90
55771;DHT22;41687;-33.234;-60.334;2023-06-24T00:58:22;10.30;99.90
55771;DHT22;41687;-33.234;-60.334;2023-06-24T01:00:51;10.30;99.90
55771;DHT22;41687;-33.234;-60.334;2023-06-24T01:03:25;10.30;99.90
55771;DHT22;41687;-33.234;-60.334;2023-06-24T01:05:54;10.30;99.90
55771;DHT22;41687;-33.234;-60.334;2023-06-24T01:08:22;10.30;99.90
55771;DHT22;41687;-33.234;-60.334;2023-06-24T01:10:50;10.40;99.90
55771;DHT22;41687;-33.234;-60.334;2023-06-24T01:13:18;10.50;99.90
55771;DHT22;41687;-33.234;-60.334;2023-06-24T01:15:47;10.50;99.90
55771;DHT22;41687;-33.234;-60.334;2023-06-24T01:18:37;10.60;99.90
55771;DHT22;41687;-33.234;-60.334;2023-06-24T01:26:47;10.50;99.90
55771;DHT22;41687;-33.234;-60.334;2023-06-24T01:32:08;10.70;99.90
55771;DHT22;41687;-33.234;-60.334;2023-06-24T01:34:53;10.70;99.90
55771;DHT22;41687;-33.234;-60.334;2023-06-24T01:40:14;10.70;99.90
55771;DHT22;41687;-33.234;-60.334;2023-06-24T01:42:45;10.80;99.90
55771;DHT22;41687;-33.234;-60.334;2023-06-24T01:45:18;10.80;99.90
55771;DHT22;41687;-33.234;-60.334;2023-06-24T01:47:48;10.60;99.90
55771;DHT22;41687;-33.234;-60.334;2023-06-24T01:50:21;10.60;99.90
55771;DHT22;41687;-33.234;-60.334;2023-06-24T01:52:51;10.60;99.90
55771;DHT22;41687;-33.234;-60.334;2023-06-24T01:55:21;10.60;99.90
55771;DHT22;41687;-33.234;-60.334;2023-06-24T01:57:52;10.60;99.90
55771;DHT22;41687;-33.234;-60.334;2023-06-24T02:00:22;10.70;99.90
55771;DHT22;41687;-33.234;-60.334;2023-06-24T02:02:51;10.70;99.90
55771;DHT22;41687;-33.234;-60.334;2023-06-24T02:05:19;10.70;99.90
55771;DHT22;41687;-33.234;-60.334;2023-06-24T02:07:50;10.70;99.90
55771;DHT22;41687;-33.234;-60.334;2023-06-24T02:10:20;10.50;99.90
55771;DHT22;41687;-33.234;-60.334;2023-06-24T02:12:51;10.50;99.90
55771;DHT22;41687;-33.234;-60.334;2023-06-24T02:15:22;10.60;99.90
55771;DHT22;41687;-33.234;-60.334;2023-06-24T02:17:51;10.50;99.90
55771;DHT22;41687;-33.234;-60.334;2023-06-24T02:20:24;10.40;99.90
55771;DHT22;41687;-33.234;-60.334;2023-06-24T02:22:55;10.40;99.90
55771;DHT22;41687;-33.234;-60.334;2023-06-24T02:25:24;10.30;99.90
55771;DHT22;41687;-33.234;-60.334;2023-06-24T02:27:55;10.30;99.90
55771;DHT22;41687;-33.234;-60.334;2023-06-24T02:30:24;10.30;99.90
55771;DHT22;41687;-33.234;-60.334;2023-06-24T02:32:53;10.30;99.90
55771;DHT22;41687;-33.234;-60.334;2023-06-24T02:35:21;10.40;99.90
55771;DHT22;41687;-33.234;-60.334;2023-06-24T02:37:48;10.30;99.90
55771;DHT22;41687;-33.234;-60.334;2023-06-24T02:40:17;10.30;99.90
55771;DHT22;41687;-33.234;-60.334;2023-06-24T02:42:45;10.30;99.90
55771;DHT22;41687;-33.234;-60.334;2023-06-24T02:45:13;10.30;99.90
55771;DHT22;41687;-33.234;-60.334;2023-06-24T02:47:44;10.30;99.90
55771;DHT22;41687;-33.234;-60.334;2023-06-24T02:50:14;10.40;99.90
55771;DHT22;41687;-33.234;-60.334;2023-06-24T02:52:42;10.40;99.90
55771;DHT22;41687;-33.234;-60.334;2023-06-24T02:55:14;10.30;99.90
55771;DHT22;41687;-33.234;-60.334;2023-06-24T02:57:55;10.40;99.90
55771;DHT22;41687;-33.234;-60.334;2023-06-24T03:00:28;10.40;99.90
55771;DHT22;41687;-33.234;-60.334;2023-06-24T03:03:10;10.50;99.90
55771;DHT22;41687;-33.234;-60.334;2023-06-24T03:05:47;10.50;99.90
55771;DHT22;41687;-33.234;-60.334;2023-06-24T03:08:18;10.50;99.90
55771;DHT22;41687;-33.234;-60.334;2023-06-24T03:10:48;10.50;99.90
55771;DHT22;41687;-33.234;-60.334;2023-06-24T03:13:21;10.50;99.90
55771;DHT22;41687;-33.234;-60.334;2023-06-24T03:16:11;10.50;99.90
55771;DHT22;41687;-33.234;-60.334;2023-06-24T03:18:48;10.60;99.90
55771;DHT22;41687;-33.234;-60.334;2023-06-24T03:21:17;10.60;99.90
55771;DHT22;41687;-33.234;-60.334;2023-06-24T03:23:44;10.60;99.90
55771;DHT22;41687;-33.234;-60.334;2023-06-24T03:26:14;10.60;99.90
55771;DHT22;41687;-33.234;-60.334;2023-06-24T03:28:43;10.60;99.90
55771;DHT22;41687;-33.234;-60.334;2023-06-24T03:31:15;10.70;99.90
55771;DHT22;41687;-33.234;-60.334;2023-06-24T03:33:43;10.70;99.90
55771;DHT22;41687;-33.234;-60.334;2023-06-24T03:36:13;10.80;99.90
55771;DHT22;41687;-33.234;-60.334;2023-06-24T03:38:42;10.90;99.90
55771;DHT22;41687;-33.234;-60.334;2023-06-24T03:41:09;10.90;99.90
55771;DHT22;41687;-33.234;-60.334;2023-06-24T03:43:39;10.90;99.90
55771;DHT22;41687;-33.234;-60.334;2023-06-24T03:46:06;11.00;99.90
55771;DHT22;41687;-33.234;-60.334;2023-06-24T03:48:35;11.00;99.90
55771;DHT22;41687;-33.234;-60.334;2023-06-24T03:51:03;11.00;99.90
55771;DHT22;41687;-33.234;-60.334;2023-06-24T03:53:31;11.10;99.90
55771;DHT22;41687;-33.234;-60.334;2023-06-24T03:55:59;11.20;99.90
55771;DHT22;41687;-33.234;-60.334;2023-06-24T03:58:28;11.20;99.90
55771;DHT22;41687;-33.234;-60.334;2023-06-24T04:00:56;11.30;99.90
55771;DHT22;41687;-33.234;-60.334;2023-06-24T04:03:25;11.30;99.90
55771;DHT22;41687;-33.234;-60.334;2023-06-24T04:05:56;11.30;99.90
55771;DHT22;41687;-33.234;-60.334;2023-06-24T04:08:24;11.30;99.90
55771;DHT22;41687;-33.234;-60.334;2023-06-24T04:10:58;11.40;99.90
55771;DHT22;41687;-33.234;-60.334;2023-06-24T04:13:35;11.40;99.90
55771;DHT22;41687;-33.234;-60.334;2023-06-24T04:16:03;11.40;99.90
55771;DHT22;41687;-33.234;-60.334;2023-06-24T04:18:31;11.40;99.90
55771;DHT22;41687;-33.234;-60.334;2023-06-24T04:20:58;11.40;99.90
55771;DHT22;41687;-33.234;-60.334;2023-06-24T04:23:26;11.50;99.90
55771;DHT22;41687;-33.234;-60.334;2023-06-24T04:25:54;11.50;99.90
55771;DHT22;41687;-33.234;-60.334;2023-06-24T04:28:22;11.50;99.90
55771;DHT22;41687;-33.234;-60.334;2023-06-24T04:30:51;11.50;99.90
55771;DHT22;41687;-33.234;-60.334;2023-06-24T04:33:18;11.60;99.90
55771;DHT22;41687;-33.234;-60.334;2023-06-24T04:35:46;11.50;99.90
55771;DHT22;41687;-33.234;-60.334;2023-06-24T04:38:14;11.50;99.90
55771;DHT22;41687;-33.234;-60.334;2023-06-24T04:40:46;11.50;99.90
55771;DHT22;41687;-33.234;-60.334;2023-06-24T04:43:13;11.50;99.90
55771;DHT22;41687;-33.234;-60.334;2023-06-24T04:45:41;11.40;99.90
55771;DHT22;41687;-33.234;-60.334;2023-06-24T04:48:08;11.40;99.90
55771;DHT22;41687;-33.234;-60.334;2023-06-24T04:50:36;11.40;99.90
55771;DHT22;41687;-33.234;-60.334;2023-06-24T04:53:03;11.40;99.90
55771;DHT22;41687;-33.234;-60.334;2023-06-24T04:55:32;11.50;99.90
55771;DHT22;41687;-33.234;-60.334;2023-06-24T04:58:00;11.60;99.90
55771;DHT22;41687;-33.234;-60.334;2023-06-24T05:00:27;11.40;99.90
55771;DHT22;41687;-33.234;-60.334;2023-06-24T05:02:55;11.30;99.90
55771;DHT22;41687;-33.234;-60.334;2023-06-24T05:05:22;11.30;99.90
55771;DHT22;41687;-33.234;-60.334;2023-06-24T05:07:50;11.20;99.90
55771;DHT22;41687;-33.234;-60.334;2023-06-24T05:10:17;11.20;99.90
55771;DHT22;41687;-33.234;-60.334;2023-06-24T05:12:45;11.20;99.90
55771;DHT22;41687;-33.234;-60.334;2023-06-24T05:15:13;11.20;99.90
55771;DHT22;41687;-33.234;-60.334;2023-06-24T05:17:40;11.20;99.90
55771;DHT22;41687;-33.234;-60.334;2023-06-24T05:20:08;11.30;99.90
55771;DHT22;41687;-33.234;-60.334;2023-06-24T05:22:36;11.40;99.90
55771;DHT22;41687;-33.234;-60.334;2023-06-24T05:25:04;11.40;99.90
55771;DHT22;41687;-33.234;-60.334;2023-06-24T05:27:32;11.40;99.90
55771;DHT22;41687;-33.234;-60.334;2023-06-24T05:29:59;11.50;99.90
55771;DHT22;41687;-33.234;-60.334;2023-06-24T05:32:27;11.50;99.90
55771;DHT22;41687;-33.234;-60.334;2023-06-24T05:34:55;11.50;99.90
55771;DHT22;41687;-33.234;-60.334;2023-06-24T05:37:22;11.40;99.90
55771;DHT22;41687;-33.234;-60.334;2023-06-24T05:39:50;11.30;99.90
55771;DHT22;41687;-33.234;-60.334;2023-06-24T05:42:17;11.30;99.90
55771;DHT22;41687;-33.234;-60.334;2023-06-24T05:44:45;11.40;99.90
55771;DHT22;41687;-33.234;-60.334;2023-06-24T05:47:12;11.40;99.90
55771;DHT22;41687;-33.234;-60.334;2023-06-24T05:49:40;11.40;99.90
55771;DHT22;41687;-33.234;-60.334;2023-06-24T05:52:07;11.40;99.90
55771;DHT22;41687;-33.234;-60.334;2023-06-24T05:54:35;11.50;99.90
55771;DHT22;41687;-33.234;-60.334;2023-06-24T05:57:04;11.50;99.90
55771;DHT22;41687;-33.234;-60.334;2023-06-24T05:59:34;11.50;99.90
55771;DHT22;41687;-33.234;-60.334;2023-06-24T06:02:01;11.50;99.90
55771;DHT22;41687;-33.234;-60.334;2023-06-24T06:04:29;11.50;99.90
55771;DHT22;41687;-33.234;-60.334;2023-06-24T06:06:57;11.60;99.90
55771;DHT22;41687;-33.234;-60.334;2023-06-24T06:09:24;11.60;99.90
55771;DHT22;41687;-33.234;-60.334;2023-06-24T06:11:52;11.60;99.90
55771;DHT22;41687;-33.234;-60.334;2023-06-24T06:14:20;11.60;99.90
55771;DHT22;41687;-33.234;-60.334;2023-06-24T06:16:47;11.60;99.90
55771;DHT22;41687;-33.234;-60.334;2023-06-24T06:19:15;11.60;99.90
55771;DHT22;41687;-33.234;-60.334;2023-06-24T06:21:42;11.40;99.90
55771;DHT22;41687;-33.234;-60.334;2023-06-24T06:24:10;11.40;99.90
55771;DHT22;41687;-33.234;-60.334;2023-06-24T06:26:42;11.30;99.90
55771;DHT22;41687;-33.234;-60.334;2023-06-24T06:29:11;11.20;99.90
55771;DHT22;41687;-33.234;-60.334;2023-06-24T06:31:39;11.20;99.90
55771;DHT22;41687;-33.234;-60.334;2023-06-24T06:34:07;11.20;99.90
55771;DHT22;41687;-33.234;-60.334;2023-06-24T06:36:35;11.20;99.90
55771;DHT22;41687;-33.234;-60.334;2023-06-24T06:39:03;11.20;99.90
55771;DHT22;41687;-33.234;-60.334;2023-06-24T06:41:30;11.20;99.90
55771;DHT22;41687;-33.234;-60.334;2023-06-24T06:43:59;11.10;99.90
55771;DHT22;41687;-33.234;-60.334;2023-06-24T06:46:27;11.10;99.90
55771;DHT22;41687;-33.234;-60.334;2023-06-24T06:48:54;11.10;99.90
55771;DHT22;41687;-33.234;-60.334;2023-06-24T06:51:22;11.10;99.90
55771;DHT22;41687;-33.234;-60.334;2023-06-24T06:53:52;11.20;99.90
55771;DHT22;41687;-33.234;-60.334;2023-06-24T06:56:24;11.20;99.90
55771;DHT22;41687;-33.234;-60.334;2023-06-24T06:58:52;11.20;99.90
55771;DHT22;41687;-33.234;-60.334;2023-06-24T07:01:20;11.10;99.90
55771;DHT22;41687;-33.234;-60.334;2023-06-24T07:03:49;11.10;99.90
55771;DHT22;41687;-33.234;-60.334;2023-06-24T07:06:18;11.20;99.90
55771;DHT22;41687;-33.234;-60.334;2023-06-24T07:08:47;11.20;99.90
55771;DHT22;41687;-33.234;-60.334;2023-06-24T07:11:14;11.20;99.90
55771;DHT22;41687;-33.234;-60.334;2023-06-24T07:13:42;11.20;99.90
55771;DHT22;41687;-33.234;-60.334;2023-06-24T07:16:09;11.20;99.90
55771;DHT22;41687;-33.234;-60.334;2023-06-24T07:18:37;11.10;99.90
55771;DHT22;41687;-33.234;-60.334;2023-06-24T07:21:04;11.00;99.90
55771;DHT22;41687;-33.234;-60.334;2023-06-24T07:23:32;10.90;99.90
55771;DHT22;41687;-33.234;-60.334;2023-06-24T07:25:59;10.90;99.90
55771;DHT22;41687;-33.234;-60.334;2023-06-24T07:28:27;10.90;99.90
55771;DHT22;41687;-33.234;-60.334;2023-06-24T07:30:55;10.90;99.90
55771;DHT22;41687;-33.234;-60.334;2023-06-24T07:33:22;10.80;99.90
55771;DHT22;41687;-33.234;-60.334;2023-06-24T07:35:50;10.90;99.90
55771;DHT22;41687;-33.234;-60.334;2023-06-24T07:38:18;10.90;99.90
55771;DHT22;41687;-33.234;-60.334;2023-06-24T07:40:45;11.00;99.90
55771;DHT22;41687;-33.234;-60.334;2023-06-24T07:43:13;11.10;99.90
55771;DHT22;41687;-33.234;-60.334;2023-06-24T07:45:40;11.20;99.90
55771;DHT22;41687;-33.234;-60.334;2023-06-24T07:48:08;11.20;99.90
55771;DHT22;41687;-33.234;-60.334;2023-06-24T07:50:37;11.30;99.90
55771;DHT22;41687;-33.234;-60.334;2023-06-24T07:53:05;11.30;99.90
55771;DHT22;41687;-33.234;-60.334;2023-06-24T07:55:32;11.30;99.90
55771;DHT22;41687;-33.234;-60.334;2023-06-24T07:58:00;11.30;99.90
55771;DHT22;41687;-33.234;-60.334;2023-06-24T08:00:29;11.40;99.90
55771;DHT22;41687;-33.234;-60.334;2023-06-24T08:02:59;11.40;99.90
55771;DHT22;41687;-33.234;-60.334;2023-06-24T08:05:27;11.50;99.90
55771;DHT22;41687;-33.234;-60.334;2023-06-24T08:07:55;11.50;99.90
55771;DHT22;41687;-33.234;-60.334;2023-06-24T08:10:22;11.50;99.90
55771;DHT22;41687;-33.234;-60.334;2023-06-24T08:12:50;11.50;99.90
55771;DHT22;41687;-33.234;-60.334;2023-06-24T08:15:18;11.50;99.90
55771;DHT22;41687;-33.234;-60.334;2023-06-24T08:17:51;11.60;99.90
55771;DHT22;41687;-33.234;-60.334;2023-06-24T08:20:23;11.60;99.90
55771;DHT22;41687;-33.234;-60.334;2023-06-24T08:22:51;11.50;99.90
55771;DHT22;41687;-33.234;-60.334;2023-06-24T08:25:19;11.40;99.90
55771;DHT22;41687;-33.234;-60.334;2023-06-24T08:27:47;11.40;99.90
55771;DHT22;41687;-33.234;-60.334;2023-06-24T08:30:14;11.40;99.90
55771;DHT22;41687;-33.234;-60.334;2023-06-24T08:32:42;11.40;99.90
55771;DHT22;41687;-33.234;-60.334;2023-06-24T08:35:10;11.40;99.90
55771;DHT22;41687;-33.234;-60.334;2023-06-24T08:37:38;11.30;99.90
55771;DHT22;41687;-33.234;-60.334;2023-06-24T08:40:06;11.30;99.90
55771;DHT22;41687;-33.234;-60.334;2023-06-24T08:42:34;11.20;99.90
55771;DHT22;41687;-33.234;-60.334;2023-06-24T08:45:01;11.20;99.90
55771;DHT22;41687;-33.234;-60.334;2023-06-24T08:47:28;11.20;99.90
55771;DHT22;41687;-33.234;-60.334;2023-06-24T08:50:05;11.30;99.90
55771;DHT22;41687;-33.234;-60.334;2023-06-24T08:52:36;11.40;99.90
55771;DHT22;41687;-33.234;-60.334;2023-06-24T08:55:07;11.40;99.90
55771;DHT22;41687;-33.234;-60.334;2023-06-24T08:57:36;11.50;99.90
55771;DHT22;41687;-33.234;-60.334;2023-06-24T09:00:04;11.50;99.90
55771;DHT22;41687;-33.234;-60.334;2023-06-24T09:02:36;11.60;99.90
55771;DHT22;41687;-33.234;-60.334;2023-06-24T09:05:06;11.60;99.90
55771;DHT22;41687;-33.234;-60.334;2023-06-24T09:07:34;11.60;99.90
55771;DHT22;41687;-33.234;-60.334;2023-06-24T09:10:01;11.60;99.90
55771;DHT22;41687;-33.234;-60.334;2023-06-24T09:12:32;11.70;99.90
55771;DHT22;41687;-33.234;-60.334;2023-06-24T09:15:00;11.70;99.90
55771;DHT22;41687;-33.234;-60.334;2023-06-24T09:17:27;11.60;99.90
55771;DHT22;41687;-33.234;-60.334;2023-06-24T09:20:04;11.60;99.90
55771;DHT22;41687;-33.234;-60.334;2023-06-24T09:22:32;11.70;99.90
55771;DHT22;41687;-33.234;-60.334;2023-06-24T09:25:01;11.60;99.90
55771;DHT22;41687;-33.234;-60.334;2023-06-24T09:27:32;11.60;99.90
55771;DHT22;41687;-33.234;-60.334;2023-06-24T09:30:19;11.60;99.90
55771;DHT22;41687;-33.234;-60.334;2023-06-24T09:32:48;11.60;99.90
55771;DHT22;41687;-33.234;-60.334;2023-06-24T09:35:21;11.60;99.90
55771;DHT22;41687;-33.234;-60.334;2023-06-24T09:37:57;11.70;99.90
55771;DHT22;41687;-33.234;-60.334;2023-06-24T09:40:26;11.70;99.90
55771;DHT22;41687;-33.234;-60.334;2023-06-24T09:42:58;11.70;99.90
55771;DHT22;41687;-33.234;-60.334;2023-06-24T09:45:30;11.60;99.90
55771;DHT22;41687;-33.234;-60.334;2023-06-24T09:47:58;11.70;99.90
55771;DHT22;41687;-33.234;-60.334;2023-06-24T09:50:26;11.70;99.90
55771;DHT22;41687;-33.234;-60.334;2023-06-24T09:52:57;11.80;99.90
55771;DHT22;41687;-33.234;-60.334;2023-06-24T09:55:26;11.80;99.90
55771;DHT22;41687;-33.234;-60.334;2023-06-24T09:57:55;11.80;99.90
55771;DHT22;41687;-33.234;-60.334;2023-06-24T10:00:24;11.80;99.90
55771;DHT22;41687;-33.234;-60.334;2023-06-24T10:02:54;11.80;99.90
55771;DHT22;41687;-33.234;-60.334;2023-06-24T10:05:22;11.80;99.90
55771;DHT22;41687;-33.234;-60.334;2023-06-24T10:07:49;11.90;99.90
55771;DHT22;41687;-33.234;-60.334;2023-06-24T10:10:18;11.90;99.90
55771;DHT22;41687;-33.234;-60.334;2023-06-24T10:12:46;11.90;99.90
55771;DHT22;41687;-33.234;-60.334;2023-06-24T10:15:13;11.90;99.90
55771;DHT22;41687;-33.234;-60.334;2023-06-24T10:17:41;11.90;99.90
55771;DHT22;41687;-33.234;-60.334;2023-06-24T10:20:09;11.80;99.90
55771;DHT22;41687;-33.234;-60.334;2023-06-24T10:22:37;11.80;99.90
55771;DHT22;41687;-33.234;-60.334;2023-06-24T10:25:08;11.80;99.90
55771;DHT22;41687;-33.234;-60.334;2023-06-24T10:27:39;11.80;99.90
55771;DHT22;41687;-33.234;-60.334;2023-06-24T10:30:17;11.80;99.90
55771;DHT22;41687;-33.234;-60.334;2023-06-24T10:32:51;11.80;99.90
55771;DHT22;41687;-33.234;-60.334;2023-06-24T10:37:55;11.90;99.90
55771;DHT22;41687;-33.234;-60.334;2023-06-24T10:40:41;11.90;99.90
55771;DHT22;41687;-33.234;-60.334;2023-06-24T10:45:57;11.90;99.90
55771;DHT22;41687;-33.234;-60.334;2023-06-24T10:48:26;11.90;99.90
55771;DHT22;41687;-33.234;-60.334;2023-06-24T10:50:53;11.80;99.90
55771;DHT22;41687;-33.234;-60.334;2023-06-24T10:53:22;11.80;99.90
55771;DHT22;41687;-33.234;-60.334;2023-06-24T10:55:49;11.90;99.90
55771;DHT22;41687;-33.234;-60.334;2023-06-24T10:58:17;11.90;99.90
55771;DHT22;41687;-33.234;-60.334;2023-06-24T11:00:44;11.90;99.90
55771;DHT22;41687;-33.234;-60.334;2023-06-24T11:03:17;11.90;99.90
55771;DHT22;41687;-33.234;-60.334;2023-06-24T11:05:48;11.90;99.90
55771;DHT22;41687;-33.234;-60.334;2023-06-24T11:08:15;11.90;99.90
55771;DHT22;41687;-33.234;-60.334;2023-06-24T11:10:47;11.90;99.90
55771;DHT22;41687;-33.234;-60.334;2023-06-24T11:13:15;11.90;99.90
55771;DHT22;41687;-33.234;-60.334;2023-06-24T11:15:42;11.90;99.90
55771;DHT22;41687;-33.234;-60.334;2023-06-24T11:18:11;11.90;99.90
55771;DHT22;41687;-33.234;-60.334;2023-06-24T11:20:39;11.90;99.90
55771;DHT22;41687;-33.234;-60.334;2023-06-24T11:23:08;11.90;99.90
55771;DHT22;41687;-33.234;-60.334;2023-06-24T11:25:43;12.00;99.90
55771;DHT22;41687;-33.234;-60.334;2023-06-24T11:28:20;11.90;99.90
55771;DHT22;41687;-33.234;-60.334;2023-06-24T11:30:49;11.90;99.90
55771;DHT22;41687;-33.234;-60.334;2023-06-24T11:33:27;11.90;99.90
55771;DHT22;41687;-33.234;-60.334;2023-06-24T11:35:56;12.00;99.90
55771;DHT22;41687;-33.234;-60.334;2023-06-24T11:38:23;12.00;99.90
55771;DHT22;41687;-33.234;-60.334;2023-06-24T11:40:57;11.90;99.90
55771;DHT22;41687;-33.234;-60.334;2023-06-24T11:43:26;11.90;99.90
55771;DHT22;41687;-33.234;-60.334;2023-06-24T11:45:54;12.00;99.90
55771;DHT22;41687;-33.234;-60.334;2023-06-24T11:48:21;12.00;99.90
55771;DHT22;41687;-33.234;-60.334;2023-06-24T11:50:55;12.00;99.90
55771;DHT22;41687;-33.234;-60.334;2023-06-24T11:53:30;11.90;99.90
55771;DHT22;41687;-33.234;-60.334;2023-06-24T11:55:58;12.00;99.90
55771;DHT22;41687;-33.234;-60.334;2023-06-24T11:58:26;12.00;99.90
55771;DHT22;41687;-33.234;-60.334;2023-06-24T12:00:56;12.00;99.90
55771;DHT22;41687;-33.234;-60.334;2023-06-24T12:03:24;12.00;99.90
55771;DHT22;41687;-33.234;-60.334;2023-06-24T12:05:51;12.10;99.90
55771;DHT22;41687;-33.234;-60.334;2023-06-24T12:08:19;12.10;99.90
55771;DHT22;41687;-33.234;-60.334;2023-06-24T12:10:47;12.10;99.90
55771;DHT22;41687;-33.234;-60.334;2023-06-24T12:13:14;12.10;99.90
55771;DHT22;41687;-33.234;-60.334;2023-06-24T12:15:42;12.10;99.90
55771;DHT22;41687;-33.234;-60.334;2023-06-24T12:18:12;12.10;99.90
55771;DHT22;41687;-33.234;-60.334;2023-06-24T12:20:40;12.10;99.90
55771;DHT22;41687;-33.234;-60.334;2023-06-24T12:23:07;12.10;99.90
55771;DHT22;41687;-33.234;-60.334;2023-06-24T12:25:35;12.10;99.90
55771;DHT22;41687;-33.234;-60.334;2023-06-24T12:28:03;12.10;99.90
55771;DHT22;41687;-33.234;-60.334;2023-06-24T12:30:30;12.10;99.90
55771;DHT22;41687;-33.234;-60.334;2023-06-24T12:32:58;12.10;99.90
55771;DHT22;41687;-33.234;-60.334;2023-06-24T12:35:26;12.20;99.90
55771;DHT22;41687;-33.234;-60.334;2023-06-24T12:37:53;12.20;99.90
55771;DHT22;41687;-33.234;-60.334;2023-06-24T12:40:21;12.10;99.90
55771;DHT22;41687;-33.234;-60.334;2023-06-24T12:42:48;12.20;99.90
55771;DHT22;41687;-33.234;-60.334;2023-06-24T12:45:17;12.30;99.90
55771;DHT22;41687;-33.234;-60.334;2023-06-24T12:47:44;12.30;99.90
55771;DHT22;41687;-33.234;-60.334;2023-06-24T12:50:11;12.30;99.90
55771;DHT22;41687;-33.234;-60.334;2023-06-24T12:52:39;12.30;99.90
55771;DHT22;41687;-33.234;-60.334;2023-06-24T12:55:08;12.30;99.90
55771;DHT22;41687;-33.234;-60.334;2023-06-24T12:57:36;12.40;99.90
55771;DHT22;41687;-33.234;-60.334;2023-06-24T13:00:07;12.40;99.90
55771;DHT22;41687;-33.234;-60.334;2023-06-24T13:02:36;12.40;99.90
55771;DHT22;41687;-33.234;-60.334;2023-06-24T13:05:05;12.50;99.90
55771;DHT22;41687;-33.234;-60.334;2023-06-24T13:07:33;12.50;99.90
55771;DHT22;41687;-33.234;-60.334;2023-06-24T13:10:00;12.50;99.90
55771;DHT22;41687;-33.234;-60.334;2023-06-24T13:12:28;12.60;99.90
55771;DHT22;41687;-33.234;-60.334;2023-06-24T13:14:56;12.60;99.90
55771;DHT22;41687;-33.234;-60.334;2023-06-24T13:17:24;12.60;99.90
55771;DHT22;41687;-33.234;-60.334;2023-06-24T13:19:52;12.50;99.90
55771;DHT22;41687;-33.234;-60.334;2023-06-24T13:22:19;12.50;99.90
55771;DHT22;41687;-33.234;-60.334;2023-06-24T13:24:47;12.50;99.90
55771;DHT22;41687;-33.234;-60.334;2023-06-24T13:27:15;12.50;99.90
55771;DHT22;41687;-33.234;-60.334;2023-06-24T13:29:43;12.50;99.90
55771;DHT22;41687;-33.234;-60.334;2023-06-24T13:32:11;12.50;99.90
55771;DHT22;41687;-33.234;-60.334;2023-06-24T13:34:38;12.50;99.90
55771;DHT22;41687;-33.234;-60.334;2023-06-24T13:37:06;12.50;99.90
55771;DHT22;41687;-33.234;-60.334;2023-06-24T13:39:34;12.50;99.90
55771;DHT22;41687;-33.234;-60.334;2023-06-24T13:42:02;12.50;99.90
55771;DHT22;41687;-33.234;-60.334;2023-06-24T13:44:29;12.60;99.90
55771;DHT22;41687;-33.234;-60.334;2023-06-24T13:46:57;12.50;99.90
55771;DHT22;41687;-33.234;-60.334;2023-06-24T13:49:25;12.60;99.90
55771;DHT22;41687;-33.234;-60.334;2023-06-24T13:51:52;12.60;99.90
55771;DHT22;41687;-33.234;-60.334;2023-06-24T13:54:20;12.60;99.90
55771;DHT22;41687;-33.234;-60.334;2023-06-24T13:56:48;12.60;99.90
55771;DHT22;41687;-33.234;-60.334;2023-06-24T13:59:16;12.60;99.90
55771;DHT22;41687;-33.234;-60.334;2023-06-24T14:01:44;12.70;99.90
55771;DHT22;41687;-33.234;-60.334;2023-06-24T14:04:12;12.70;99.90
55771;DHT22;41687;-33.234;-60.334;2023-06-24T14:06:40;12.70;99.90
55771;DHT22;41687;-33.234;-60.334;2023-06-24T14:09:07;12.70;99.90
55771;DHT22;41687;-33.234;-60.334;2023-06-24T14:11:34;12.80;99.90
55771;DHT22;41687;-33.234;-60.334;2023-06-24T14:14:02;12.80;99.90
55771;DHT22;41687;-33.234;-60.334;2023-06-24T14:16:30;12.80;99.90
55771;DHT22;41687;-33.234;-60.334;2023-06-24T14:18:58;12.80;99.90
55771;DHT22;41687;-33.234;-60.334;2023-06-24T14:21:25;12.80;99.90
55771;DHT22;41687;-33.234;-60.334;2023-06-24T14:23:53;12.80;99.90
55771;DHT22;41687;-33.234;-60.334;2023-06-24T14:26:21;12.80;99.90
55771;DHT22;41687;-33.234;-60.334;2023-06-24T14:28:48;12.80;99.90
55771;DHT22;41687;-33.234;-60.334;2023-06-24T14:31:16;12.80;99.90
55771;DHT22;41687;-33.234;-60.334;2023-06-24T14:33:43;12.90;99.90
55771;DHT22;41687;-33.234;-60.334;2023-06-24T14:36:11;12.80;99.90
55771;DHT22;41687;-33.234;-60.334;2023-06-24T14:38:38;12.70;99.90
55771;DHT22;41687;-33.234;-60.334;2023-06-24T14:41:06;12.80;99.90
55771;DHT22;41687;-33.234;-60.334;2023-06-24T14:43:34;12.80;99.90
55771;DHT22;41687;-33.234;-60.334;2023-06-24T14:46:02;12.80;99.90
55771;DHT22;41687;-33.234;-60.334;2023-06-24T14:48:29;12.80;99.90
55771;DHT22;41687;-33.234;-60.334;2023-06-24T14:50:57;12.70;99.90
55771;DHT22;41687;-33.234;-60.334;2023-06-24T14:53:24;12.70;99.90
55771;DHT22;41687;-33.234;-60.334;2023-06-24T14:55:53;12.70;99.90
55771;DHT22;41687;-33.234;-60.334;2023-06-24T14:58:20;12.70;99.90
55771;DHT22;41687;-33.234;-60.334;2023-06-24T15:00:48;12.70;99.90
55771;DHT22;41687;-33.234;-60.334;2023-06-24T15:03:15;12.70;99.90
55771;DHT22;41687;-33.234;-60.334;2023-06-24T15:05:43;12.70;99.90
55771;DHT22;41687;-33.234;-60.334;2023-06-24T15:08:11;12.80;99.90
55771;DHT22;41687;-33.234;-60.334;2023-06-24T15:10:39;12.80;99.90
55771;DHT22;41687;-33.234;-60.334;2023-06-24T15:13:06;12.90;99.90
55771;DHT22;41687;-33.234;-60.334;2023-06-24T15:15:34;12.90;99.90